createdAt,value
2019-01-25T00:00:43.692Z,17.3
2019-01-25T00:01:34.247Z,17.3
2019-01-25T00:02:23.964Z,17.3
2019-01-25T00:03:19.964Z,17.4
2019-01-25T00:04:03.819Z,17.4
2019-01-25T00:04:54.502Z,17.4
2019-01-25T00:05:43.375Z,17.5
2019-01-25T00:06:33.699Z,17.6
2019-01-25T00:07:24.294Z,17.6
2019-01-25T00:08:14.407Z,17.6
2019-01-25T00:09:04.179Z,17.6
2019-01-25T00:10:02.244Z,17.6
2019-01-25T00:10:44.269Z,17.7
2019-01-25T00:11:34.086Z,17.7
2019-01-25T00:12:24.945Z,17.8
2019-01-25T00:13:14.984Z,17.7
2019-01-25T00:14:04.526Z,17.7
2019-01-25T00:14:54.542Z,17.6
2019-01-25T00:15:44.381Z,17.6
2019-01-25T00:16:34.993Z,17.6
2019-01-25T00:17:24.984Z,17.5
2019-01-25T00:18:15.361Z,17.4
2019-01-25T00:19:05.454Z,17.4
2019-01-25T00:19:54.898Z,17.4
2019-01-25T00:20:45.251Z,17.3
2019-01-25T00:21:35.633Z,17.3
2019-01-25T00:22:25.670Z,17.3
2019-01-25T00:23:16.215Z,17.3
2019-01-25T00:24:07.350Z,17.3
2019-01-25T00:24:56.420Z,17.3
2019-01-25T00:25:45.571Z,17.3
2019-01-25T00:26:35.436Z,17.3
2019-01-25T00:27:25.745Z,17.3
2019-01-25T00:28:15.508Z,17.3
2019-01-25T00:29:06.965Z,17.3
2019-01-25T00:29:55.943Z,17.3
2019-01-25T00:30:46.533Z,17.4
2019-01-25T00:31:37.883Z,17.4
2019-01-25T00:32:26.575Z,17.4
2019-01-25T00:33:16.667Z,17.5
2019-01-25T00:34:06.165Z,17.6
2019-01-25T00:34:56.748Z,17.6
2019-01-25T00:35:46.897Z,17.6
2019-01-25T00:36:36.653Z,17.6
2019-01-25T00:37:27.230Z,17.6
2019-01-25T00:38:16.527Z,17.7
2019-01-25T00:39:06.507Z,17.8
2019-01-25T00:39:56.020Z,17.8
2019-01-25T00:40:48.205Z,17.9
2019-01-25T00:41:36.944Z,17.9
2019-01-25T00:42:26.735Z,17.9
2019-01-25T00:43:16.854Z,17.8
2019-01-25T00:44:06.548Z,17.8
2019-01-25T00:44:56.937Z,17.8
2019-01-25T00:45:47.514Z,17.7
2019-01-25T00:46:37.281Z,17.6
2019-01-25T00:47:27.094Z,17.6
2019-01-25T00:48:16.312Z,17.6
2019-01-25T00:49:07.179Z,17.5
2019-01-25T00:49:57.521Z,17.5
2019-01-25T00:50:47.564Z,17.4
2019-01-25T00:51:37.416Z,17.4
2019-01-25T00:52:27.689Z,17.4
2019-01-25T00:53:18.316Z,17.4
2019-01-25T00:54:07.333Z,17.4
2019-01-25T00:54:56.777Z,17.4
2019-01-25T00:55:47.963Z,17.4
2019-01-25T00:56:37.501Z,17.4
2019-01-25T00:57:27.209Z,17.4
2019-01-25T00:58:18.880Z,17.4
2019-01-25T00:59:07.921Z,17.4
2019-01-25T00:59:58.483Z,17.4
2019-01-25T01:00:48.303Z,17.4
2019-01-25T01:01:37.820Z,17.3
2019-01-25T01:02:28.963Z,17.3
2019-01-25T01:03:18.460Z,17.3
2019-01-25T01:04:08.260Z,17.3
2019-01-25T01:04:58.589Z,17.2
2019-01-25T01:05:48.628Z,17.1
2019-01-25T01:07:28.733Z,16.9
2019-01-25T01:08:18.325Z,16.9
2019-01-25T01:09:09.733Z,16.8
2019-01-25T01:10:49.628Z,16.9
2019-01-25T01:11:39.059Z,16.8
2019-01-25T01:12:28.795Z,16.8
2019-01-25T01:13:19.160Z,16.9
2019-01-25T01:14:09.782Z,16.9
2019-01-25T01:18:19.247Z,17.1
2019-01-25T01:19:09.844Z,17.1
2019-01-25T01:19:59.902Z,17.2
2019-01-25T01:20:49.417Z,17.3
2019-01-25T01:21:39.697Z,17.3
2019-01-25T01:22:29.504Z,17.4
2019-01-25T01:23:19.854Z,17.4
2019-01-25T01:24:10.209Z,17.6
2019-01-25T01:25:00.477Z,17.6
2019-01-25T01:25:50.287Z,17.6
2019-01-25T01:26:39.811Z,17.6
2019-01-25T01:27:30.706Z,17.6
2019-01-25T01:28:20.464Z,17.6
2019-01-25T01:29:10.524Z,17.5
2019-01-25T01:29:59.756Z,17.5
2019-01-25T01:30:50.914Z,17.4
2019-01-25T01:31:40.429Z,17.4
2019-01-25T01:32:29.899Z,17.4
2019-01-25T01:33:20.516Z,17.3
2019-01-25T01:34:10.384Z,17.3
2019-01-25T01:35:00.746Z,17.3
2019-01-25T01:35:49.944Z,17.2
2019-01-25T01:36:41.011Z,17.1
2019-01-25T01:37:30.806Z,17.1
2019-01-25T01:38:21.176Z,17.1
2019-01-25T01:39:09.535Z,17.1
2019-01-25T01:40:00.764Z,17.1
2019-01-25T01:40:51.623Z,17.1
2019-01-25T01:41:40.661Z,17.1
2019-01-25T01:42:31.775Z,17.1
2019-01-25T01:43:20.666Z,17.1
2019-01-25T01:44:10.740Z,17.1
2019-01-25T01:45:01.228Z,17.2
2019-01-25T01:45:51.107Z,17.3
2019-01-25T01:46:41.765Z,17.3
2019-01-25T01:47:31.225Z,17.4
2019-01-25T01:48:21.286Z,17.4
2019-01-25T01:49:11.398Z,17.4
2019-01-25T01:50:01.702Z,17.5
2019-01-25T01:50:51.195Z,17.5
2019-01-25T01:51:42.365Z,17.6
2019-01-25T01:52:31.570Z,17.6
2019-01-25T01:53:21.931Z,17.6
2019-01-25T01:54:12.239Z,17.7
2019-01-25T01:55:02.356Z,17.7
2019-01-25T01:55:52.682Z,17.6
2019-01-25T01:56:41.923Z,17.7
2019-01-25T01:57:32.759Z,17.6
2019-01-25T01:58:22.524Z,17.6
2019-01-25T01:59:12.889Z,17.6
2019-01-25T02:00:01.884Z,17.6
2019-01-25T02:00:52.692Z,17.6
2019-01-25T02:01:42.006Z,17.6
2019-01-25T02:02:32.544Z,17.5
2019-01-25T02:03:22.034Z,17.4
2019-01-25T02:04:12.447Z,17.4
2019-01-25T02:05:02.461Z,17.4
2019-01-25T02:05:52.604Z,17.3
2019-01-25T02:06:42.834Z,17.3
2019-01-25T02:07:32.881Z,17.2
2019-01-25T02:08:22.992Z,17.1
2019-01-25T02:09:12.751Z,17.1
2019-01-25T02:10:02.907Z,17.2
2019-01-25T02:10:52.916Z,17.2
2019-01-25T02:11:43.194Z,17.2
2019-01-25T02:12:32.931Z,17.2
2019-01-25T02:13:23.568Z,17.3
2019-01-25T02:14:13.565Z,17.3
2019-01-25T02:15:03.457Z,17.3
2019-01-25T02:15:52.669Z,17.3
2019-01-25T02:16:43.249Z,17.4
2019-01-25T02:17:33.826Z,17.4
2019-01-25T02:18:24.203Z,17.5
2019-01-25T02:19:14.003Z,17.6
2019-01-25T02:20:04.048Z,17.6
2019-01-25T02:20:53.826Z,17.6
2019-01-25T02:21:43.863Z,17.7
2019-01-25T02:22:34.296Z,17.8
2019-01-25T02:23:24.261Z,17.8
2019-01-25T02:24:13.793Z,17.8
2019-01-25T02:25:04.387Z,17.8
2019-01-25T02:25:53.922Z,17.8
2019-01-25T02:26:43.635Z,17.8
2019-01-25T02:27:34.275Z,17.8
2019-01-25T02:28:24.338Z,17.7
2019-01-25T02:29:14.670Z,17.6
2019-01-25T02:30:04.907Z,17.6
2019-01-25T02:30:54.037Z,17.5
2019-01-25T02:31:44.703Z,17.5
2019-01-25T02:32:33.683Z,17.4
2019-01-25T02:33:25.367Z,17.4
2019-01-25T02:34:15.046Z,17.4
2019-01-25T02:35:04.897Z,17.4
2019-01-25T02:35:55.490Z,17.3
2019-01-25T02:36:45.040Z,17.3
2019-01-25T02:37:35.405Z,17.3
2019-01-25T02:38:24.567Z,17.3
2019-01-25T02:39:14.892Z,17.3
2019-01-25T02:40:05.222Z,17.3
2019-01-25T02:40:54.726Z,17.2
2019-01-25T02:41:45.637Z,17.2
2019-01-25T02:42:37.389Z,17.2
2019-01-25T02:43:25.509Z,17.2
2019-01-25T02:44:14.969Z,17.2
2019-01-25T02:45:05.558Z,17.3
2019-01-25T02:45:55.326Z,17.2
2019-01-25T02:46:45.369Z,17.2
2019-01-25T02:47:35.169Z,17.1
2019-01-25T02:48:25.816Z,17.1
2019-01-25T02:50:06.341Z,16.9
2019-01-25T02:50:54.830Z,16.8
2019-01-25T02:51:46.256Z,16.8
2019-01-25T02:52:36.361Z,16.7
2019-01-25T02:53:26.416Z,16.6
2019-01-25T02:54:16.141Z,16.6
2019-01-25T02:55:05.751Z,16.6
2019-01-25T02:55:55.726Z,16.6
2019-01-25T02:56:46.361Z,16.6
2019-01-25T02:57:36.733Z,16.7
2019-01-25T02:58:25.606Z,16.8
2019-01-25T02:59:16.786Z,16.8
2019-01-25T03:00:06.529Z,16.8
2019-01-25T03:00:57.026Z,16.9
2019-01-25T03:01:46.931Z,16.9
2019-01-25T03:03:27.383Z,17.1
2019-01-25T03:04:17.429Z,17.2
2019-01-25T03:05:07.190Z,17.2
2019-01-25T03:08:40.238Z,17.4
2019-01-25T03:09:29.632Z,17.5
2019-01-25T03:10:20.009Z,17.6
2019-01-25T03:11:10.038Z,17.6
2019-01-25T03:12:00.057Z,17.5
2019-01-25T03:12:50.809Z,17.6
2019-01-25T03:13:40.505Z,17.5
2019-01-25T03:14:30.630Z,17.4
2019-01-25T03:15:20.627Z,17.4
2019-01-25T03:16:10.053Z,17.4
2019-01-25T03:16:59.265Z,17.4
2019-01-25T03:17:51.220Z,17.4
2019-01-25T03:18:40.562Z,17.3
2019-01-25T03:19:30.634Z,17.3
2019-01-25T03:20:20.679Z,17.3
2019-01-25T03:21:12.853Z,17.2
2019-01-25T03:22:01.039Z,17.2
2019-01-25T03:22:50.829Z,17.1
2019-01-25T03:23:41.220Z,17.1
2019-01-25T03:24:31.283Z,17.2
2019-01-25T03:25:21.001Z,17.2
2019-01-25T03:26:10.871Z,17.2
2019-01-25T03:27:01.369Z,17.2
2019-01-25T03:27:51.434Z,17.2
2019-01-25T03:28:41.531Z,17.2
2019-01-25T03:29:31.090Z,17.3
2019-01-25T03:30:22.182Z,17.3
2019-01-25T03:31:11.855Z,17.3
2019-01-25T03:32:01.947Z,17.3
2019-01-25T03:32:51.547Z,17.4
2019-01-25T03:33:41.303Z,17.4
2019-01-25T03:34:32.246Z,17.4
2019-01-25T03:35:21.736Z,17.4
2019-01-25T03:36:11.443Z,17.5
2019-01-25T03:37:01.196Z,17.5
2019-01-25T03:37:51.854Z,17.6
2019-01-25T03:38:42.223Z,17.6
2019-01-25T03:39:32.009Z,17.6
2019-01-25T03:40:22.566Z,17.6
2019-01-25T03:41:12.640Z,17.6
2019-01-25T03:42:02.093Z,17.6
2019-01-25T03:42:52.811Z,17.6
2019-01-25T03:43:42.525Z,17.6
2019-01-25T03:44:32.848Z,17.4
2019-01-25T03:45:22.356Z,17.4
2019-01-25T03:46:12.175Z,17.3
2019-01-25T03:47:02.545Z,17.3
2019-01-25T03:47:52.651Z,17.3
2019-01-25T03:48:42.568Z,17.2
2019-01-25T03:49:32.975Z,17.2
2019-01-25T03:50:23.284Z,17.2
2019-01-25T03:51:13.090Z,17.2
2019-01-25T03:52:03.127Z,17.2
2019-01-25T03:52:52.305Z,17.2
2019-01-25T03:53:43.204Z,17.2
2019-01-25T03:54:33.279Z,17.2
2019-01-25T03:55:23.082Z,17.2
2019-01-25T03:56:13.648Z,17.2
2019-01-25T03:57:03.157Z,17.3
2019-01-25T03:57:53.262Z,17.3
2019-01-25T03:58:43.027Z,17.3
2019-01-25T03:59:33.915Z,17.3
2019-01-25T04:00:23.410Z,17.3
2019-01-25T04:01:13.120Z,17.4
2019-01-25T04:02:03.564Z,17.4
2019-01-25T04:02:53.293Z,17.4
2019-01-25T04:03:43.850Z,17.4
2019-01-25T04:04:32.794Z,17.4
2019-01-25T04:05:23.717Z,17.5
2019-01-25T04:06:14.060Z,17.6
2019-01-25T04:07:03.806Z,17.6
2019-01-25T04:07:54.577Z,17.6
2019-01-25T04:08:43.949Z,17.6
2019-01-25T04:09:34.349Z,17.7
2019-01-25T04:10:24.092Z,17.7
2019-01-25T04:11:14.419Z,17.7
2019-01-25T04:12:04.204Z,17.7
2019-01-25T04:12:54.551Z,17.6
2019-01-25T04:13:44.037Z,17.6
2019-01-25T04:14:34.681Z,17.6
2019-01-25T04:15:24.441Z,17.5
2019-01-25T04:16:14.121Z,17.4
2019-01-25T04:17:04.488Z,17.4
2019-01-25T04:17:53.852Z,17.4
2019-01-25T04:18:45.240Z,17.3
2019-01-25T04:19:34.727Z,17.3
2019-01-25T04:20:25.415Z,17.2
2019-01-25T04:21:15.170Z,17.1
2019-01-25T04:22:05.137Z,17.1
2019-01-25T04:22:54.988Z,17.1
2019-01-25T04:23:45.579Z,17.1
2019-01-25T04:24:35.030Z,17.1
2019-01-25T04:25:25.371Z,17.1
2019-01-25T04:26:15.333Z,17.1
2019-01-25T04:27:05.197Z,17.2
2019-01-25T04:27:54.455Z,17.2
2019-01-25T04:28:45.011Z,17.2
2019-01-25T04:29:35.434Z,17.1
2019-01-25T04:30:25.845Z,17.1
2019-01-25T04:31:15.578Z,17.1
2019-01-25T04:32:05.815Z,17.1
2019-01-25T04:33:46.197Z,16.9
2019-01-25T04:34:36.252Z,16.9
2019-01-25T04:35:26.232Z,16.8
2019-01-25T04:36:15.658Z,16.7
2019-01-25T04:37:05.657Z,16.6
2019-01-25T04:37:56.584Z,16.6
2019-01-25T04:38:46.612Z,16.6
2019-01-25T04:39:36.123Z,16.6
2019-01-25T04:40:26.459Z,16.6
2019-01-25T04:41:21.655Z,16.6
2019-01-25T04:42:06.780Z,16.7
2019-01-25T04:42:56.616Z,16.7
2019-01-25T04:43:46.357Z,16.8
2019-01-25T04:44:36.151Z,16.8
2019-01-25T04:45:26.504Z,16.8
2019-01-25T04:46:16.294Z,16.8
2019-01-25T04:47:06.059Z,16.9
2019-01-25T04:48:46.711Z,17.1
2019-01-25T04:49:36.612Z,17.2
2019-01-25T04:50:28.749Z,17.4
2019-01-25T04:51:17.219Z,17.4
2019-01-25T04:52:05.794Z,17.4
2019-01-25T04:52:56.787Z,17.4
2019-01-25T04:53:47.439Z,17.4
2019-01-25T04:54:37.334Z,17.4
2019-01-25T04:55:26.583Z,17.5
2019-01-25T04:56:17.564Z,17.5
2019-01-25T04:57:07.601Z,17.4
2019-01-25T04:57:57.968Z,17.4
2019-01-25T04:58:46.866Z,17.4
2019-01-25T04:59:37.223Z,17.4
2019-01-25T05:00:27.861Z,17.4
2019-01-25T05:01:17.863Z,17.3
2019-01-25T05:02:07.893Z,17.3
2019-01-25T05:02:57.393Z,17.2
2019-01-25T05:03:47.811Z,17.2
2019-01-25T05:04:37.210Z,17.1
2019-01-25T05:05:27.888Z,17.1
2019-01-25T05:06:18.288Z,17.1
2019-01-25T05:07:08.295Z,17.1
2019-01-25T05:07:58.052Z,17.1
2019-01-25T05:08:48.066Z,17.1
2019-01-25T05:09:38.475Z,17.1
2019-01-25T05:10:28.533Z,17.1
2019-01-25T05:11:27.302Z,17.1
2019-01-25T05:12:08.877Z,17.2
2019-01-25T05:13:02.168Z,17.2
2019-01-25T05:13:48.721Z,17.3
2019-01-25T05:14:38.512Z,17.3
2019-01-25T05:15:29.134Z,17.4
2019-01-25T05:16:19.009Z,17.4
2019-01-25T05:17:09.200Z,17.4
2019-01-25T05:17:59.302Z,17.4
2019-01-25T05:18:48.861Z,17.4
2019-01-25T05:19:39.110Z,17.5
2019-01-25T05:20:29.456Z,17.6
2019-01-25T05:21:19.607Z,17.6
2019-01-25T05:22:08.455Z,17.6
2019-01-25T05:22:58.242Z,17.6
2019-01-25T05:23:49.389Z,17.7
2019-01-25T05:24:39.476Z,17.6
2019-01-25T05:25:29.229Z,17.6
2019-01-25T05:26:19.809Z,17.6
2019-01-25T05:27:09.884Z,17.6
2019-01-25T05:27:59.077Z,17.4
2019-01-25T05:28:49.215Z,17.4
2019-01-25T05:29:38.950Z,17.4
2019-01-25T05:30:29.398Z,17.3
2019-01-25T05:31:19.066Z,17.3
2019-01-25T05:32:09.945Z,17.3
2019-01-25T05:32:59.699Z,17.2
2019-01-25T05:33:50.071Z,17.2
2019-01-25T05:34:39.820Z,17.1
2019-01-25T05:35:30.232Z,17.1
2019-01-25T05:36:19.931Z,17.1
2019-01-25T05:37:09.748Z,17.1
2019-01-25T05:38:00.628Z,17.1
2019-01-25T05:38:50.386Z,17.1
2019-01-25T05:39:40.478Z,17.2
2019-01-25T05:40:29.519Z,17.3
2019-01-25T05:41:28.975Z,17.3
2019-01-25T05:42:10.903Z,17.3
2019-01-25T05:43:00.930Z,17.4
2019-01-25T05:43:50.723Z,17.4
2019-01-25T05:44:40.773Z,17.4
2019-01-25T05:45:30.948Z,17.5
2019-01-25T05:46:20.944Z,17.6
2019-01-25T05:47:11.225Z,17.6
2019-01-25T05:48:00.774Z,17.6
2019-01-25T05:48:51.098Z,17.6
2019-01-25T05:49:41.394Z,17.6
2019-01-25T05:50:31.555Z,17.6
2019-01-25T05:51:21.234Z,17.7
2019-01-25T05:52:10.990Z,17.6
2019-01-25T05:53:01.683Z,17.6
2019-01-25T05:53:51.104Z,17.6
2019-01-25T05:54:40.606Z,17.6
2019-01-25T05:55:30.982Z,17.5
2019-01-25T05:56:21.314Z,17.5
2019-01-25T05:57:11.369Z,17.5
2019-01-25T05:58:01.673Z,17.4
2019-01-25T05:58:51.757Z,17.4
2019-01-25T05:59:41.502Z,17.3
2019-01-25T06:00:32.121Z,17.3
2019-01-25T06:01:21.929Z,17.3
2019-01-25T06:02:11.737Z,17.2
2019-01-25T06:03:01.824Z,17.2
2019-01-25T06:03:51.792Z,17.2
2019-01-25T06:06:39.394Z,17.3
2019-01-25T06:07:29.064Z,17.3
2019-01-25T06:08:18.329Z,17.3
2019-01-25T06:09:09.534Z,17.3
2019-01-25T06:09:58.861Z,17.4
2019-01-25T06:10:49.566Z,17.4
2019-01-25T06:11:45.065Z,17.4
2019-01-25T06:12:29.982Z,17.4
2019-01-25T06:13:19.199Z,17.4
2019-01-25T06:14:10.347Z,17.4
2019-01-25T06:15:00.266Z,17.4
2019-01-25T06:15:50.253Z,17.4
2019-01-25T06:16:40.591Z,17.3
2019-01-25T06:17:30.054Z,17.3
2019-01-25T06:18:20.711Z,17.2
2019-01-25T06:19:09.921Z,17.1
2019-01-25T06:19:59.781Z,17.1
2019-01-25T06:22:30.133Z,16.9
2019-01-25T06:23:19.848Z,16.9
2019-01-25T06:24:10.480Z,16.9
2019-01-25T06:25:00.858Z,16.9
2019-01-25T06:25:50.136Z,16.9
2019-01-25T06:26:40.649Z,16.9
2019-01-25T06:27:30.690Z,16.9
2019-01-25T06:28:21.575Z,16.9
2019-01-25T06:30:01.423Z,17.1
2019-01-25T06:30:50.079Z,17.1
2019-01-25T06:31:40.757Z,17.2
2019-01-25T06:32:31.641Z,17.2
2019-01-25T06:33:21.465Z,17.3
2019-01-25T06:34:10.688Z,17.3
2019-01-25T06:35:01.636Z,17.4
2019-01-25T06:35:51.910Z,17.4
2019-01-25T06:36:41.926Z,17.5
2019-01-25T06:37:31.387Z,17.6
2019-01-25T06:38:20.025Z,17.6
2019-01-25T06:39:12.085Z,17.6
2019-01-25T06:40:00.414Z,17.6
2019-01-25T06:40:50.500Z,17.6
2019-01-25T06:41:50.437Z,17.6
2019-01-25T06:42:31.989Z,17.6
2019-01-25T06:43:22.091Z,17.5
2019-01-25T06:44:11.314Z,17.5
2019-01-25T06:45:00.786Z,17.4
2019-01-25T06:45:53.866Z,17.4
2019-01-25T06:46:41.273Z,17.3
2019-01-25T06:47:31.289Z,17.3
2019-01-25T06:48:21.424Z,17.3
2019-01-25T06:49:12.234Z,17.2
2019-01-25T06:50:01.830Z,17.3
2019-01-25T06:50:52.146Z,17.3
2019-01-25T06:51:42.408Z,17.3
2019-01-25T06:52:32.141Z,17.2
2019-01-25T06:53:22.508Z,17.2
2019-01-25T06:54:13.333Z,17.2
2019-01-25T06:55:02.305Z,17.2
2019-01-25T06:55:52.638Z,17.2
2019-01-25T06:56:42.984Z,17.3
2019-01-25T06:57:33.048Z,17.3
2019-01-25T06:58:23.086Z,17.3
2019-01-25T06:59:12.301Z,17.3
2019-01-25T07:00:03.270Z,17.3
2019-01-25T07:00:52.708Z,17.3
2019-01-25T07:01:43.683Z,17.3
2019-01-25T07:02:33.678Z,17.4
2019-01-25T07:03:23.687Z,17.3
2019-01-25T07:04:15.400Z,17.4
2019-01-25T07:06:39.287Z,17.4
2019-01-25T07:07:29.625Z,17.4
2019-01-25T07:08:19.777Z,17.4
2019-01-25T07:09:09.487Z,17.4
2019-01-25T07:10:00.190Z,17.4
2019-01-25T07:10:49.637Z,17.4
2019-01-25T07:11:54.769Z,17.4
2019-01-25T07:12:29.372Z,17.4
2019-01-25T07:13:19.770Z,17.4
2019-01-25T07:14:10.237Z,17.4
2019-01-25T07:14:59.837Z,17.3
2019-01-25T07:15:50.466Z,17.3
2019-01-25T07:16:40.322Z,17.3
2019-01-25T07:17:29.777Z,17.2
2019-01-25T07:18:19.769Z,17.3
2019-01-25T07:19:10.742Z,17.2
2019-01-25T07:19:59.887Z,17.3
2019-01-25T07:20:50.761Z,17.3
2019-01-25T07:21:41.124Z,17.3
2019-01-25T07:22:30.374Z,17.3
2019-01-25T07:23:20.398Z,17.3
2019-01-25T07:24:10.498Z,17.3
2019-01-25T07:25:06.412Z,17.3
2019-01-25T07:25:50.848Z,17.3
2019-01-25T07:26:40.896Z,17.4
2019-01-25T07:27:30.136Z,17.4
2019-01-25T07:28:20.176Z,17.3
2019-01-25T07:29:11.399Z,17.4
2019-01-25T07:30:01.924Z,17.4
2019-01-25T07:30:51.454Z,17.4
2019-01-25T07:31:42.222Z,17.5
2019-01-25T07:32:31.221Z,17.6
2019-01-25T07:33:22.306Z,17.6
2019-01-25T07:34:10.605Z,17.6
2019-01-25T07:35:00.763Z,17.6
2019-01-25T07:35:51.561Z,17.5
2019-01-25T07:36:42.271Z,17.5
2019-01-25T07:37:32.182Z,17.5
2019-01-25T07:38:21.209Z,17.4
2019-01-25T07:39:11.586Z,17.4
2019-01-25T07:40:03.273Z,17.4
2019-01-25T07:40:52.483Z,17.3
2019-01-25T07:41:41.463Z,17.3
2019-01-25T07:42:31.998Z,17.2
2019-01-25T07:43:22.003Z,17.2
2019-01-25T07:44:13.060Z,17.1
2019-01-25T07:45:03.265Z,17.1
2019-01-25T07:45:53.463Z,17.1
2019-01-25T07:46:42.805Z,17.1
2019-01-25T07:47:34.878Z,17.1
2019-01-25T07:48:23.251Z,17.1
2019-01-25T07:49:13.511Z,17.1
2019-01-25T07:50:02.879Z,17.1
2019-01-25T07:50:53.470Z,17.2
2019-01-25T07:51:43.007Z,17.2
2019-01-25T07:52:33.635Z,17.2
2019-01-25T07:53:25.033Z,17.3
2019-01-25T07:54:13.293Z,17.3
2019-01-25T07:55:02.836Z,17.3
2019-01-25T07:55:53.217Z,17.3
2019-01-25T07:56:43.273Z,17.3
2019-01-25T07:57:33.550Z,17.4
2019-01-25T07:58:23.510Z,17.4
2019-01-25T07:59:13.508Z,17.5
2019-01-25T08:00:03.463Z,17.5
2019-01-25T08:00:53.540Z,17.5
2019-01-25T08:01:43.663Z,17.5
2019-01-25T08:02:33.168Z,17.4
2019-01-25T08:03:23.159Z,17.3
2019-01-25T08:04:13.806Z,17.3
2019-01-25T08:05:04.367Z,17.3
2019-01-25T08:05:54.259Z,17.2
2019-01-25T08:06:42.933Z,17.1
2019-01-25T08:07:34.389Z,17.1
2019-01-25T08:08:24.174Z,17.1
2019-01-25T08:11:43.316Z,16.9
2019-01-25T08:12:33.559Z,16.9
2019-01-25T08:13:25.101Z,16.9
2019-01-25T08:15:04.709Z,17.1
2019-01-25T08:15:55.123Z,17.1
2019-01-25T08:16:44.532Z,17.3
2019-01-25T08:17:34.858Z,17.3
2019-01-25T08:18:25.041Z,17.4
2019-01-25T08:19:15.319Z,17.4
2019-01-25T08:20:07.759Z,17.4
2019-01-25T08:20:54.822Z,17.5
2019-01-25T08:21:46.360Z,17.6
2019-01-25T08:22:35.885Z,17.6
2019-01-25T08:23:26.106Z,17.6
2019-01-25T08:24:15.186Z,17.5
2019-01-25T08:25:06.176Z,17.5
2019-01-25T08:25:56.278Z,17.4
2019-01-25T08:26:47.085Z,17.4
2019-01-25T08:27:35.593Z,17.4
2019-01-25T08:28:25.888Z,17.3
2019-01-25T08:29:15.833Z,17.3
2019-01-25T08:30:06.030Z,17.3
2019-01-25T08:30:55.689Z,17.3
2019-01-25T08:31:46.143Z,17.3
2019-01-25T08:32:36.057Z,17.3
2019-01-25T08:33:26.768Z,17.3
2019-01-25T08:34:16.168Z,17.2
2019-01-25T08:35:06.632Z,17.2
2019-01-25T08:35:55.792Z,17.3
2019-01-25T08:36:45.962Z,17.2
2019-01-25T08:37:36.067Z,17.2
2019-01-25T08:38:26.973Z,17.1
2019-01-25T08:39:16.953Z,17.2
2019-01-25T08:40:06.699Z,17.3
2019-01-25T08:40:57.739Z,17.3
2019-01-25T08:41:46.843Z,17.3
2019-01-25T08:42:36.289Z,17.3
2019-01-25T08:43:26.200Z,17.3
2019-01-25T08:44:16.972Z,17.4
2019-01-25T08:45:10.518Z,17.4
2019-01-25T08:45:59.881Z,17.5
2019-01-25T08:46:46.572Z,17.5
2019-01-25T08:47:36.789Z,17.5
2019-01-25T08:48:26.436Z,17.6
2019-01-25T08:49:17.279Z,17.7
2019-01-25T08:50:08.946Z,17.7
2019-01-25T08:50:57.496Z,17.8
2019-01-25T08:51:48.907Z,17.8
2019-01-25T08:52:37.809Z,17.7
2019-01-25T08:53:27.919Z,17.7
2019-01-25T08:54:18.841Z,17.7
2019-01-25T08:55:07.303Z,17.6
2019-01-25T08:55:58.186Z,17.6
2019-01-25T08:56:47.250Z,17.5
2019-01-25T08:57:38.221Z,17.4
2019-01-25T08:58:27.511Z,17.4
2019-01-25T08:59:17.907Z,17.3
2019-01-25T09:00:07.371Z,17.3
2019-01-25T09:00:58.958Z,17.3
2019-01-25T09:01:46.404Z,17.3
2019-01-25T09:02:37.099Z,17.3
2019-01-25T09:03:27.024Z,17.2
2019-01-25T09:04:16.918Z,17.2
2019-01-25T09:05:07.873Z,17.1
2019-01-25T09:05:57.996Z,17.1
2019-01-25T09:06:47.793Z,17.2
2019-01-25T09:07:37.685Z,17.1
2019-01-25T09:08:28.212Z,17.1
2019-01-25T09:09:17.672Z,17.2
2019-01-25T09:10:08.060Z,17.3
2019-01-25T09:10:57.510Z,17.3
2019-01-25T09:11:47.582Z,17.3
2019-01-25T09:12:37.988Z,17.4
2019-01-25T09:13:28.802Z,17.5
2019-01-25T09:14:17.542Z,17.6
2019-01-25T09:15:07.642Z,17.6
2019-01-25T09:15:57.869Z,17.6
2019-01-25T09:16:47.930Z,17.7
2019-01-25T09:17:37.947Z,17.7
2019-01-25T09:18:28.339Z,17.8
2019-01-25T09:19:17.297Z,17.8
2019-01-25T09:20:16.322Z,17.8
2019-01-25T09:20:59.631Z,17.7
2019-01-25T09:21:48.817Z,17.7
2019-01-25T09:22:38.650Z,17.7
2019-01-25T09:23:27.880Z,17.6
2019-01-25T09:24:19.561Z,17.6
2019-01-25T09:25:09.146Z,17.6
2019-01-25T09:26:06.139Z,17.5
2019-01-25T09:26:48.209Z,17.4
2019-01-25T09:27:39.996Z,17.4
2019-01-25T09:28:28.433Z,17.3
2019-01-25T09:29:18.476Z,17.3
2019-01-25T09:30:09.359Z,17.3
2019-01-25T09:30:59.151Z,17.3
2019-01-25T09:31:50.083Z,17.2
2019-01-25T09:32:39.583Z,17.2
2019-01-25T09:33:30.089Z,17.2
2019-01-25T09:34:20.286Z,17.2
2019-01-25T09:35:11.773Z,17.2
2019-01-25T09:35:59.822Z,17.3
2019-01-25T09:36:50.218Z,17.3
2019-01-25T09:37:40.208Z,17.2
2019-01-25T09:38:29.985Z,17.3
2019-01-25T09:39:19.751Z,17.4
2019-01-25T09:40:10.350Z,17.4
2019-01-25T09:40:58.968Z,17.4
2019-01-25T09:41:49.413Z,17.4
2019-01-25T09:42:40.842Z,17.5
2019-01-25T09:43:30.086Z,17.6
2019-01-25T09:44:20.120Z,17.5
2019-01-25T09:45:10.126Z,17.5
2019-01-25T09:46:00.730Z,17.5
2019-01-25T09:46:49.940Z,17.4
2019-01-25T09:47:39.223Z,17.4
2019-01-25T10:29:29.785Z,17.4
2019-01-25T10:29:40.270Z,17.5
2019-01-25T10:30:29.249Z,17.5
2019-01-25T10:31:19.929Z,17.5
2019-01-25T10:32:10.814Z,17.5
2019-01-25T10:33:01.261Z,17.5
2019-01-25T10:33:50.037Z,17.6
2019-01-25T10:34:40.070Z,17.6
2019-01-25T10:35:29.649Z,17.6
2019-01-25T10:36:21.053Z,17.7
2019-01-25T10:37:10.518Z,17.7
2019-01-25T10:38:01.492Z,17.7
2019-01-25T10:38:50.666Z,17.7
2019-01-25T10:39:40.689Z,17.8
2019-01-25T10:40:30.754Z,17.8
2019-01-25T10:41:21.378Z,17.8
2019-01-25T10:42:12.078Z,17.8
2019-01-25T10:43:03.100Z,17.8
2019-01-25T10:43:52.483Z,17.9
2019-01-25T10:44:41.315Z,17.8
2019-01-25T10:45:31.659Z,17.8
2019-01-25T10:46:21.460Z,17.7
2019-01-25T10:47:12.159Z,17.6
2019-01-25T10:48:02.435Z,17.6
2019-01-25T10:48:51.038Z,17.5
2019-01-25T10:49:41.997Z,17.4
2019-01-25T10:50:32.306Z,17.4
2019-01-25T10:51:21.824Z,17.3
2019-01-25T10:52:13.716Z,17.3
2019-01-25T10:53:01.938Z,17.3
2019-01-25T10:53:52.200Z,17.3
2019-01-25T10:54:42.857Z,17.3
2019-01-25T10:55:32.900Z,17.2
2019-01-25T10:56:22.398Z,17.3
2019-01-25T10:57:11.961Z,17.3
2019-01-25T10:58:02.245Z,17.2
2019-01-25T10:58:52.552Z,17.2
2019-01-25T10:59:42.330Z,17.2
2019-01-25T11:00:32.969Z,17.3
2019-01-25T11:01:22.204Z,17.3
2019-01-25T11:02:12.788Z,17.3
2019-01-25T11:03:08.158Z,17.3
2019-01-25T11:03:55.015Z,17.4
2019-01-25T11:04:43.523Z,17.4
2019-01-25T11:05:33.052Z,17.5
2019-01-25T11:06:23.619Z,17.6
2019-01-25T11:07:13.759Z,17.7
2019-01-25T11:08:03.521Z,17.8
2019-01-25T11:08:55.352Z,17.8
2019-01-25T11:09:48.184Z,17.9
2019-01-25T11:10:33.665Z,17.9
2019-01-25T11:11:23.993Z,17.9
2019-01-25T11:12:14.067Z,17.9
2019-01-25T11:13:10.491Z,17.9
2019-01-25T11:13:54.159Z,17.9
2019-01-25T11:14:44.251Z,17.9
2019-01-25T11:15:33.703Z,17.8
2019-01-25T11:16:24.038Z,17.8
2019-01-25T11:17:14.116Z,17.7
2019-01-25T11:18:03.706Z,17.6
2019-01-25T11:18:53.944Z,17.6
2019-01-25T11:19:43.726Z,17.5
2019-01-25T11:20:34.411Z,17.4
2019-01-25T11:21:24.468Z,17.4
2019-01-25T11:22:13.578Z,17.4
2019-01-25T11:23:04.273Z,17.3
2019-01-25T11:23:54.273Z,17.3
2019-01-25T11:24:44.343Z,17.3
2019-01-25T11:25:34.703Z,17.2
2019-01-25T11:26:24.233Z,17.2
2019-01-25T11:27:14.738Z,17.3
2019-01-25T11:28:05.134Z,17.3
2019-01-25T11:28:54.923Z,17.2
2019-01-25T11:29:45.219Z,17.3
2019-01-25T11:30:34.590Z,17.3
2019-01-25T11:31:24.360Z,17.4
2019-01-25T11:32:15.210Z,17.3
2019-01-25T11:33:05.480Z,17.3
2019-01-25T11:33:54.705Z,17.3
2019-01-25T11:34:45.550Z,17.2
2019-01-25T11:35:35.040Z,17.1
2019-01-25T11:36:25.122Z,17.1
2019-01-25T11:37:14.969Z,16.9
2019-01-25T11:38:05.345Z,16.9
2019-01-25T11:38:55.077Z,16.9
2019-01-25T11:39:49.807Z,16.9
2019-01-25T11:40:35.462Z,16.9
2019-01-25T11:41:25.802Z,16.9
2019-01-25T11:42:15.286Z,16.9
2019-01-25T11:43:13.702Z,16.9
2019-01-25T11:43:55.975Z,16.9
2019-01-25T11:44:45.477Z,16.9
2019-01-25T11:45:36.074Z,16.9
2019-01-25T11:47:16.426Z,17.1
2019-01-25T11:48:07.939Z,17.1
2019-01-25T11:48:55.969Z,17.1
2019-01-25T11:49:46.074Z,17.1
2019-01-25T11:50:36.647Z,17.2
2019-01-25T11:51:27.989Z,17.3
2019-01-25T11:52:16.132Z,17.3
2019-01-25T11:53:06.300Z,17.4
2019-01-25T11:53:56.912Z,17.5
2019-01-25T11:54:46.679Z,17.6
2019-01-25T11:55:36.416Z,17.7
2019-01-25T11:56:26.265Z,17.7
2019-01-25T11:57:17.098Z,17.7
2019-01-25T11:58:07.199Z,17.7
2019-01-25T11:58:57.224Z,17.6
2019-01-25T11:59:46.991Z,17.6
2019-01-25T12:00:37.403Z,17.6
2019-01-25T12:01:26.621Z,17.5
2019-01-25T12:02:24.313Z,17.4
2019-01-25T12:03:07.264Z,17.4
2019-01-25T12:03:57.587Z,17.4
2019-01-25T12:04:46.634Z,17.4
2019-01-25T12:05:36.858Z,17.3
2019-01-25T12:07:38.580Z,17.3
2019-01-25T12:08:29.443Z,17.3
2019-01-25T12:09:19.493Z,17.3